SJX236 VHHH-RCTP
Flight info
| Callsign | SJX236 |
|---|---|
| Flight time | 1h 13m |
| Altitude | 39000 |
| Route | DALOL V631 ENVAR M750 EXTRA/N0471F290 M750 TONGA TONGA1A |
| Aircraft | A359/H-SDE2E3GHIJ3J4J5LM1ORWXY/LB1D1 |
Departure
| Time | 2026-05-06 07:42 |
|---|---|
| Airport | Hong Kong International Airport (VHHH) |
Arrival
| Time | 2026-05-06 08:55 |
|---|---|
| Airport | Taiwan Taoyuan International Airport (RCTP) |
| Time | Latitude | Longitude | Altitude | Speed | Heading |
|---|---|---|---|---|---|
| 2026-05-06 07:27 | 22.31691 | 113.93297 | 41 ft | 0 kts | 71° |
| 2026-05-06 07:31 | 22.31690 | 113.93292 | 40 ft | 2 kts | 71° |
| 2026-05-06 07:32 | 22.31684 | 113.93272 | 43 ft | 3 kts | 71° |
| 2026-05-06 07:32 | 22.31677 | 113.93252 | 40 ft | 3 kts | 71° |
| 2026-05-06 07:32 | 22.31671 | 113.93232 | 40 ft | 3 kts | 69° |
| 2026-05-06 07:32 | 22.31663 | 113.93213 | 40 ft | 3 kts | 57° |
| 2026-05-06 07:33 | 22.31652 | 113.93196 | 40 ft | 3 kts | 41° |
| 2026-05-06 07:33 | 22.31637 | 113.93184 | 39 ft | 3 kts | 25° |
| 2026-05-06 07:33 | 22.31622 | 113.93178 | 41 ft | 0 kts | 16° |
| 2026-05-06 07:34 | 22.31625 | 113.93178 | 41 ft | 2 kts | 16° |
| 2026-05-06 07:34 | 22.31662 | 113.93187 | 40 ft | 9 kts | 4° |
| 2026-05-06 07:34 | 22.31745 | 113.93161 | 43 ft | 16 kts | 342° |
| 2026-05-06 07:34 | 22.31860 | 113.93107 | 42 ft | 15 kts | 312° |
| 2026-05-06 07:35 | 22.31862 | 113.93036 | 43 ft | 10 kts | 251° |
| 2026-05-06 07:35 | 22.31831 | 113.92941 | 43 ft | 17 kts | 251° |
| 2026-05-06 07:35 | 22.31784 | 113.92796 | 43 ft | 24 kts | 250° |
| 2026-05-06 07:35 | 22.31726 | 113.92618 | 43 ft | 23 kts | 251° |
| 2026-05-06 07:36 | 22.31670 | 113.92445 | 43 ft | 23 kts | 251° |
| 2026-05-06 07:36 | 22.31614 | 113.92272 | 43 ft | 23 kts | 251° |
| 2026-05-06 07:36 | 22.31559 | 113.92097 | 43 ft | 25 kts | 251° |
| 2026-05-06 07:36 | 22.31504 | 113.91927 | 43 ft | 25 kts | 250° |
| 2026-05-06 07:37 | 22.31446 | 113.91749 | 43 ft | 25 kts | 251° |
| 2026-05-06 07:37 | 22.31391 | 113.91578 | 43 ft | 25 kts | 251° |
| 2026-05-06 07:37 | 22.31332 | 113.91396 | 43 ft | 26 kts | 251° |
| 2026-05-06 07:37 | 22.31275 | 113.91219 | 44 ft | 23 kts | 251° |
| 2026-05-06 07:38 | 22.31224 | 113.91053 | 43 ft | 16 kts | 263° |
| 2026-05-06 07:38 | 22.31266 | 113.90974 | 43 ft | 14 kts | 297° |
| 2026-05-06 07:38 | 22.31253 | 113.90860 | 43 ft | 18 kts | 249° |
| 2026-05-06 07:38 | 22.31206 | 113.90715 | 43 ft | 23 kts | 250° |
| 2026-05-06 07:39 | 22.31148 | 113.90535 | 43 ft | 28 kts | 251° |
| 2026-05-06 07:39 | 22.31087 | 113.90346 | 42 ft | 20 kts | 251° |
| 2026-05-06 07:39 | 22.31058 | 113.90255 | 43 ft | 14 kts | 251° |
| 2026-05-06 07:39 | 22.31023 | 113.90147 | 43 ft | 17 kts | 251° |
| 2026-05-06 07:40 | 22.30982 | 113.90018 | 43 ft | 20 kts | 251° |
| 2026-05-06 07:40 | 22.30966 | 113.89915 | 43 ft | 10 kts | 288° |
| 2026-05-06 07:40 | 22.31037 | 113.89873 | 43 ft | 14 kts | 340° |
| 2026-05-06 07:40 | 22.31110 | 113.89858 | 43 ft | 3 kts | 42° |
| 2026-05-06 07:41 | 22.31125 | 113.89896 | 43 ft | 9 kts | 71° |
| 2026-05-06 07:41 | 22.31182 | 113.90078 | 43 ft | 57 kts | 71° |
| 2026-05-06 07:41 | 22.31382 | 113.90704 | 43 ft | 118 kts | 70° |
| 2026-05-06 07:41 | 22.31711 | 113.91725 | 66 ft | 167 kts | 72° |
| 2026-05-06 07:42 | 22.32089 | 113.92894 | 764 ft | 165 kts | 72° |
| 2026-05-06 07:42 | 22.32475 | 113.94098 | 1359 ft | 178 kts | 73° |
| 2026-05-06 07:42 | 22.32911 | 113.95450 | 1596 ft | 204 kts | 73° |
| 2026-05-06 07:42 | 22.33351 | 113.96971 | 2013 ft | 218 kts | 78° |
| 2026-05-06 07:43 | 22.33656 | 113.98602 | 2633 ft | 223 kts | 81° |
| 2026-05-06 07:43 | 22.33826 | 114.00292 | 3230 ft | 231 kts | 91° |
| 2026-05-06 07:43 | 22.33551 | 114.02019 | 3819 ft | 236 kts | 112° |
| 2026-05-06 07:43 | 22.32727 | 114.03554 | 4472 ft | 239 kts | 133° |
| 2026-05-06 07:44 | 22.31462 | 114.04707 | 5160 ft | 239 kts | 149° |
| 2026-05-06 07:44 | 22.30036 | 114.05639 | 5856 ft | 241 kts | 152° |
| 2026-05-06 07:44 | 22.28581 | 114.06557 | 6559 ft | 243 kts | 152° |
| 2026-05-06 07:44 | 22.27116 | 114.07492 | 7252 ft | 246 kts | 152° |
| 2026-05-06 07:45 | 22.25600 | 114.08378 | 7934 ft | 249 kts | 161° |
| 2026-05-06 07:45 | 22.23911 | 114.08725 | 8628 ft | 249 kts | 181° |
| 2026-05-06 07:45 | 22.22115 | 114.08728 | 9019 ft | 268 kts | 184° |
| 2026-05-06 07:45 | 22.20198 | 114.08683 | 9501 ft | 281 kts | 184° |
| 2026-05-06 07:46 | 22.18217 | 114.08740 | 10125 ft | 290 kts | 175° |
| 2026-05-06 07:46 | 22.16250 | 114.09477 | 10456 ft | 314 kts | 149° |
| 2026-05-06 07:46 | 22.14687 | 114.11224 | 10707 ft | 338 kts | 123° |
| 2026-05-06 07:46 | 22.13570 | 114.13527 | 10976 ft | 356 kts | 117° |
| 2026-05-06 07:47 | 22.12480 | 114.15972 | 11378 ft | 366 kts | 117° |
| 2026-05-06 07:47 | 22.11348 | 114.18456 | 11928 ft | 372 kts | 118° |
| 2026-05-06 07:47 | 22.10180 | 114.20966 | 12500 ft | 377 kts | 118° |
| 2026-05-06 07:47 | 22.08988 | 114.23501 | 13053 ft | 381 kts | 118° |
| 2026-05-06 07:48 | 22.07597 | 114.25947 | 13584 ft | 384 kts | 131° |
| 2026-05-06 07:48 | 22.05642 | 114.27901 | 14102 ft | 384 kts | 145° |
| 2026-05-06 07:48 | 22.03486 | 114.29607 | 14635 ft | 386 kts | 146° |
| 2026-05-06 07:48 | 22.01301 | 114.31302 | 15182 ft | 387 kts | 146° |
| 2026-05-06 07:49 | 21.99114 | 114.33008 | 15707 ft | 389 kts | 146° |
| 2026-05-06 07:49 | 21.96919 | 114.34727 | 16219 ft | 391 kts | 146° |
| 2026-05-06 07:49 | 21.94714 | 114.36463 | 16728 ft | 394 kts | 146° |
| 2026-05-06 07:49 | 21.92496 | 114.38210 | 17218 ft | 396 kts | 146° |
| 2026-05-06 07:50 | 21.90259 | 114.39966 | 17712 ft | 399 kts | 146° |
| 2026-05-06 07:50 | 21.88017 | 114.41737 | 18196 ft | 402 kts | 145° |
| 2026-05-06 07:50 | 21.85930 | 114.43766 | 18586 ft | 408 kts | 133° |
| 2026-05-06 07:50 | 21.84376 | 114.46337 | 18972 ft | 414 kts | 115° |
| 2026-05-06 07:51 | 21.83433 | 114.49266 | 19384 ft | 418 kts | 107° |
| 2026-05-06 07:51 | 21.82664 | 114.52303 | 19790 ft | 421 kts | 106° |
| 2026-05-06 07:51 | 21.81902 | 114.55354 | 20194 ft | 424 kts | 106° |
| 2026-05-06 07:51 | 21.81124 | 114.58426 | 20609 ft | 427 kts | 106° |
| 2026-05-06 07:52 | 21.80344 | 114.61478 | 21019 ft | 430 kts | 106° |
| 2026-05-06 07:52 | 21.79543 | 114.64594 | 21438 ft | 433 kts | 106° |
| 2026-05-06 07:52 | 21.78733 | 114.67728 | 21856 ft | 437 kts | 106° |
| 2026-05-06 07:52 | 21.77915 | 114.70888 | 22269 ft | 440 kts | 106° |
| 2026-05-06 07:53 | 21.77091 | 114.74069 | 22685 ft | 443 kts | 106° |
| 2026-05-06 07:53 | 21.76258 | 114.77275 | 23086 ft | 447 kts | 106° |
| 2026-05-06 07:53 | 21.75420 | 114.80503 | 23490 ft | 450 kts | 106° |
| 2026-05-06 07:53 | 21.74651 | 114.83774 | 23827 ft | 453 kts | 101° |
| 2026-05-06 07:54 | 21.74308 | 114.87153 | 24178 ft | 456 kts | 93° |
| 2026-05-06 07:54 | 21.74206 | 114.90573 | 24546 ft | 459 kts | 91° |
| 2026-05-06 07:54 | 21.74208 | 114.94014 | 24926 ft | 462 kts | 89° |
| 2026-05-06 07:54 | 21.74251 | 114.97482 | 25339 ft | 464 kts | 89° |
| 2026-05-06 07:55 | 21.74298 | 115.00962 | 25743 ft | 467 kts | 89° |
| 2026-05-06 07:55 | 21.74334 | 115.04469 | 26158 ft | 470 kts | 89° |
| 2026-05-06 07:55 | 21.74349 | 115.06805 | 26427 ft | 472 kts | 90° |
| 2026-05-06 07:55 | 21.74361 | 115.11547 | 26979 ft | 476 kts | 90° |
| 2026-05-06 07:56 | 21.74360 | 115.15119 | 27380 ft | 479 kts | 90° |
| 2026-05-06 07:56 | 21.74357 | 115.17499 | 27652 ft | 481 kts | 90° |
| 2026-05-06 07:56 | 21.74350 | 115.21158 | 28067 ft | 484 kts | 90° |
| 2026-05-06 07:56 | 21.74345 | 115.24742 | 28451 ft | 487 kts | 90° |
| 2026-05-06 07:57 | 21.74337 | 115.28395 | 28834 ft | 490 kts | 90° |
| 2026-05-06 07:57 | 21.74328 | 115.32074 | 29233 ft | 493 kts | 90° |
| 2026-05-06 07:57 | 21.74318 | 115.35769 | 29604 ft | 496 kts | 90° |
| 2026-05-06 07:57 | 21.74307 | 115.39490 | 29974 ft | 499 kts | 90° |
| 2026-05-06 07:58 | 21.74296 | 115.43233 | 30291 ft | 502 kts | 90° |
| 2026-05-06 07:58 | 21.74284 | 115.46992 | 30618 ft | 504 kts | 90° |
| 2026-05-06 07:58 | 21.74272 | 115.50767 | 30934 ft | 506 kts | 90° |
| 2026-05-06 07:58 | 21.74259 | 115.54563 | 31244 ft | 508 kts | 90° |
| 2026-05-06 07:59 | 21.74245 | 115.58373 | 31553 ft | 511 kts | 90° |
| 2026-05-06 07:59 | 21.74231 | 115.62197 | 31852 ft | 513 kts | 90° |
| 2026-05-06 07:59 | 21.74217 | 115.66040 | 32144 ft | 515 kts | 90° |
| 2026-05-06 07:59 | 21.74202 | 115.69899 | 32410 ft | 517 kts | 90° |
| 2026-05-06 08:00 | 21.74186 | 115.73777 | 32679 ft | 519 kts | 90° |
| 2026-05-06 08:00 | 21.74169 | 115.77668 | 32962 ft | 521 kts | 90° |
| 2026-05-06 08:00 | 21.74151 | 115.81570 | 33232 ft | 523 kts | 90° |
| 2026-05-06 08:00 | 21.74132 | 115.85496 | 33473 ft | 525 kts | 90° |
| 2026-05-06 08:01 | 21.74112 | 115.89431 | 33704 ft | 528 kts | 90° |
| 2026-05-06 08:01 | 21.74091 | 115.93388 | 33936 ft | 530 kts | 90° |
| 2026-05-06 08:01 | 21.74069 | 115.97347 | 34176 ft | 530 kts | 90° |
| 2026-05-06 08:01 | 21.74045 | 116.01312 | 34494 ft | 529 kts | 90° |
| 2026-05-06 08:02 | 21.74021 | 116.05266 | 34804 ft | 528 kts | 90° |
| 2026-05-06 08:02 | 21.73996 | 116.09215 | 35085 ft | 528 kts | 90° |
| 2026-05-06 08:02 | 21.73970 | 116.13162 | 35374 ft | 527 kts | 90° |
| 2026-05-06 08:02 | 21.73943 | 116.17105 | 35639 ft | 527 kts | 90° |
| 2026-05-06 08:03 | 21.73916 | 116.21039 | 35903 ft | 527 kts | 89° |
| 2026-05-06 08:03 | 21.73887 | 116.24979 | 36161 ft | 527 kts | 89° |
| 2026-05-06 08:03 | 21.73857 | 116.28918 | 36421 ft | 526 kts | 89° |
| 2026-05-06 08:03 | 21.73827 | 116.32852 | 36677 ft | 526 kts | 89° |
| 2026-05-06 08:04 | 21.73796 | 116.36783 | 36931 ft | 526 kts | 89° |
| 2026-05-06 08:04 | 21.73763 | 116.40712 | 37168 ft | 526 kts | 89° |
| 2026-05-06 08:04 | 21.73730 | 116.44647 | 37410 ft | 525 kts | 89° |
| 2026-05-06 08:04 | 21.73696 | 116.48542 | 37639 ft | 525 kts | 89° |
| 2026-05-06 08:05 | 21.73661 | 116.52486 | 37865 ft | 525 kts | 89° |
| 2026-05-06 08:05 | 21.73625 | 116.56402 | 38100 ft | 525 kts | 89° |
| 2026-05-06 08:05 | 21.73589 | 116.60325 | 38310 ft | 524 kts | 89° |
| 2026-05-06 08:05 | 21.73551 | 116.64235 | 38518 ft | 524 kts | 89° |
| 2026-05-06 08:06 | 21.73512 | 116.68163 | 38704 ft | 524 kts | 89° |
| 2026-05-06 08:06 | 21.73473 | 116.72037 | 38860 ft | 524 kts | 89° |
| 2026-05-06 08:06 | 21.74144 | 116.79853 | 38937 ft | 521 kts | 73° |
| 2026-05-06 08:07 | 21.76461 | 116.87144 | 38937 ft | 517 kts | 66° |
| 2026-05-06 08:07 | 21.79086 | 116.94337 | 38937 ft | 517 kts | 65° |
| 2026-05-06 08:08 | 21.81736 | 117.01526 | 38939 ft | 518 kts | 65° |
| 2026-05-06 08:08 | 21.84372 | 117.08773 | 38935 ft | 518 kts | 66° |
| 2026-05-06 08:09 | 21.86977 | 117.15996 | 38938 ft | 518 kts | 66° |
| 2026-05-06 08:09 | 21.89582 | 117.23241 | 38938 ft | 519 kts | 66° |
| 2026-05-06 08:10 | 21.92186 | 117.30489 | 38939 ft | 519 kts | 66° |
| 2026-05-06 08:10 | 21.94785 | 117.37735 | 38935 ft | 519 kts | 66° |
| 2026-05-06 08:11 | 21.97384 | 117.44991 | 38934 ft | 519 kts | 66° |
| 2026-05-06 08:11 | 22.00386 | 117.52020 | 38939 ft | 514 kts | 57° |
| 2026-05-06 08:12 | 22.04034 | 117.58642 | 38938 ft | 513 kts | 55° |
| 2026-05-06 08:12 | 22.07776 | 117.65196 | 38937 ft | 513 kts | 54° |
| 2026-05-06 08:13 | 22.11516 | 117.71743 | 38933 ft | 513 kts | 54° |
| 2026-05-06 08:13 | 22.15246 | 117.78312 | 38940 ft | 513 kts | 55° |
| 2026-05-06 08:14 | 22.18965 | 117.84887 | 38941 ft | 513 kts | 55° |
| 2026-05-06 08:14 | 22.22678 | 117.91463 | 38936 ft | 513 kts | 55° |
| 2026-05-06 08:15 | 22.26396 | 117.98053 | 38937 ft | 513 kts | 55° |
| 2026-05-06 08:15 | 22.30130 | 118.04617 | 38940 ft | 513 kts | 54° |
| 2026-05-06 08:16 | 22.33945 | 118.11127 | 38941 ft | 513 kts | 53° |
| 2026-05-06 08:16 | 22.37767 | 118.17638 | 38937 ft | 513 kts | 54° |
| 2026-05-06 08:17 | 22.41561 | 118.24157 | 38934 ft | 514 kts | 54° |
| 2026-05-06 08:17 | 22.45300 | 118.30750 | 38936 ft | 514 kts | 55° |
| 2026-05-06 08:18 | 22.48991 | 118.37305 | 38937 ft | 514 kts | 54° |
| 2026-05-06 08:18 | 22.52716 | 118.43911 | 38938 ft | 514 kts | 54° |
| 2026-05-06 08:19 | 22.56439 | 118.50507 | 38937 ft | 514 kts | 54° |
| 2026-05-06 08:19 | 22.60184 | 118.57105 | 38936 ft | 514 kts | 54° |
| 2026-05-06 08:20 | 22.63947 | 118.63696 | 38938 ft | 515 kts | 54° |
| 2026-05-06 08:20 | 22.67729 | 118.70336 | 38938 ft | 522 kts | 54° |
| 2026-05-06 08:21 | 22.71551 | 118.77061 | 38938 ft | 526 kts | 54° |
| 2026-05-06 08:21 | 22.75366 | 118.83790 | 38941 ft | 522 kts | 54° |
| 2026-05-06 08:22 | 22.79144 | 118.90463 | 38944 ft | 515 kts | 54° |
| 2026-05-06 08:22 | 22.82888 | 118.97077 | 38929 ft | 515 kts | 54° |
| 2026-05-06 08:23 | 22.86627 | 119.03690 | 38930 ft | 515 kts | 54° |
| 2026-05-06 08:23 | 22.90369 | 119.10319 | 38936 ft | 515 kts | 54° |
| 2026-05-06 08:24 | 22.94091 | 119.16922 | 38937 ft | 515 kts | 54° |
| 2026-05-06 08:24 | 22.97813 | 119.23534 | 38934 ft | 515 kts | 54° |
| 2026-05-06 08:25 | 23.01548 | 119.30177 | 38933 ft | 515 kts | 54° |
| 2026-05-06 08:25 | 23.05276 | 119.36817 | 38939 ft | 515 kts | 54° |
| 2026-05-06 08:26 | 23.09003 | 119.43463 | 38933 ft | 515 kts | 54° |
| 2026-05-06 08:26 | 23.12731 | 119.50119 | 38930 ft | 515 kts | 54° |
| 2026-05-06 08:27 | 23.16578 | 119.56640 | 38727 ft | 505 kts | 47° |
| 2026-05-06 08:27 | 23.18957 | 119.59398 | 38138 ft | 496 kts | 36° |
| 2026-05-06 08:27 | 23.21706 | 119.61608 | 37437 ft | 489 kts | 26° |
| 2026-05-06 08:28 | 23.24630 | 119.63486 | 36755 ft | 488 kts | 25° |
| 2026-05-06 08:28 | 23.27579 | 119.65320 | 36075 ft | 489 kts | 25° |
| 2026-05-06 08:28 | 23.30532 | 119.67162 | 35419 ft | 490 kts | 25° |
| 2026-05-06 08:28 | 23.33488 | 119.69015 | 34881 ft | 488 kts | 25° |
| 2026-05-06 08:29 | 23.36416 | 119.70857 | 34407 ft | 485 kts | 25° |
| 2026-05-06 08:29 | 23.39334 | 119.72694 | 33946 ft | 482 kts | 25° |
| 2026-05-06 08:29 | 23.42221 | 119.74514 | 33439 ft | 479 kts | 26° |
| 2026-05-06 08:29 | 23.45099 | 119.76330 | 32932 ft | 476 kts | 26° |
| 2026-05-06 08:30 | 23.47960 | 119.78136 | 32435 ft | 473 kts | 26° |
| 2026-05-06 08:30 | 23.50773 | 119.79983 | 31950 ft | 472 kts | 28° |
| 2026-05-06 08:30 | 23.53532 | 119.81902 | 31470 ft | 469 kts | 29° |
| 2026-05-06 08:30 | 23.56270 | 119.83812 | 31018 ft | 466 kts | 29° |
| 2026-05-06 08:31 | 23.59000 | 119.85708 | 30544 ft | 464 kts | 29° |
| 2026-05-06 08:31 | 23.61719 | 119.87590 | 30087 ft | 461 kts | 29° |
| 2026-05-06 08:31 | 23.64419 | 119.89456 | 29569 ft | 459 kts | 29° |
| 2026-05-06 08:31 | 23.67103 | 119.91309 | 29079 ft | 455 kts | 29° |
| 2026-05-06 08:32 | 23.69775 | 119.93154 | 28606 ft | 452 kts | 29° |
| 2026-05-06 08:32 | 23.72417 | 119.94978 | 28124 ft | 445 kts | 30° |
| 2026-05-06 08:32 | 23.75001 | 119.96764 | 27242 ft | 442 kts | 30° |
| 2026-05-06 08:32 | 23.77572 | 119.98539 | 26727 ft | 441 kts | 30° |
| 2026-05-06 08:33 | 23.80166 | 120.00332 | 26319 ft | 437 kts | 30° |
| 2026-05-06 08:33 | 23.82737 | 120.02111 | 25901 ft | 433 kts | 30° |
| 2026-05-06 08:33 | 23.85275 | 120.03867 | 25459 ft | 430 kts | 30° |
| 2026-05-06 08:33 | 23.87801 | 120.05615 | 25033 ft | 428 kts | 30° |
| 2026-05-06 08:34 | 23.90310 | 120.07352 | 24599 ft | 425 kts | 30° |
| 2026-05-06 08:34 | 23.95236 | 120.10767 | 23792 ft | 419 kts | 30° |
| 2026-05-06 08:34 | 23.97688 | 120.12466 | 23360 ft | 416 kts | 30° |
| 2026-05-06 08:35 | 24.00127 | 120.14157 | 22872 ft | 414 kts | 30° |
| 2026-05-06 08:35 | 24.02548 | 120.15838 | 22383 ft | 411 kts | 30° |
| 2026-05-06 08:35 | 24.04955 | 120.17510 | 21905 ft | 408 kts | 30° |
| 2026-05-06 08:35 | 24.07346 | 120.19170 | 21421 ft | 406 kts | 30° |
| 2026-05-06 08:36 | 24.09723 | 120.20822 | 20950 ft | 404 kts | 30° |
| 2026-05-06 08:36 | 24.12085 | 120.22467 | 20507 ft | 401 kts | 30° |
| 2026-05-06 08:36 | 24.14428 | 120.24100 | 20009 ft | 399 kts | 30° |
| 2026-05-06 08:36 | 24.16765 | 120.25725 | 19551 ft | 397 kts | 30° |
| 2026-05-06 08:37 | 24.19086 | 120.27339 | 19113 ft | 395 kts | 30° |
| 2026-05-06 08:37 | 24.21397 | 120.28948 | 18666 ft | 393 kts | 30° |
| 2026-05-06 08:37 | 24.23695 | 120.30550 | 18236 ft | 391 kts | 30° |
| 2026-05-06 08:37 | 24.25985 | 120.32147 | 17748 ft | 388 kts | 30° |
| 2026-05-06 08:38 | 24.28256 | 120.33731 | 17282 ft | 386 kts | 30° |
| 2026-05-06 08:38 | 24.30511 | 120.35304 | 16836 ft | 383 kts | 30° |
| 2026-05-06 08:38 | 24.32751 | 120.36868 | 16368 ft | 380 kts | 30° |
| 2026-05-06 08:38 | 24.34971 | 120.38417 | 15943 ft | 377 kts | 30° |
| 2026-05-06 08:39 | 24.37172 | 120.39954 | 15504 ft | 374 kts | 30° |
| 2026-05-06 08:39 | 24.39365 | 120.41487 | 15061 ft | 372 kts | 30° |
| 2026-05-06 08:39 | 24.41535 | 120.43004 | 14641 ft | 369 kts | 30° |
| 2026-05-06 08:39 | 24.43692 | 120.44515 | 14219 ft | 366 kts | 30° |
| 2026-05-06 08:40 | 24.45832 | 120.46011 | 13809 ft | 363 kts | 30° |
| 2026-05-06 08:40 | 24.47961 | 120.47498 | 13293 ft | 362 kts | 30° |
| 2026-05-06 08:40 | 24.50083 | 120.48985 | 12806 ft | 360 kts | 30° |
| 2026-05-06 08:40 | 24.52188 | 120.50461 | 12315 ft | 358 kts | 31° |
| 2026-05-06 08:41 | 24.54283 | 120.51929 | 11836 ft | 356 kts | 31° |
| 2026-05-06 08:41 | 24.56370 | 120.53392 | 11340 ft | 355 kts | 31° |
| 2026-05-06 08:41 | 24.58437 | 120.54844 | 10997 ft | 349 kts | 31° |
| 2026-05-06 08:41 | 24.60455 | 120.56262 | 10827 ft | 338 kts | 31° |
| 2026-05-06 08:42 | 24.61752 | 120.57173 | 10719 ft | 331 kts | 31° |
| 2026-05-06 08:42 | 24.63657 | 120.58512 | 10563 ft | 320 kts | 31° |
| 2026-05-06 08:42 | 24.65514 | 120.59817 | 10282 ft | 315 kts | 31° |
| 2026-05-06 08:42 | 24.67332 | 120.61148 | 10036 ft | 312 kts | 36° |
| 2026-05-06 08:43 | 24.69003 | 120.62679 | 9992 ft | 313 kts | 40° |
| 2026-05-06 08:43 | 24.70620 | 120.64268 | 9730 ft | 311 kts | 41° |
| 2026-05-06 08:43 | 24.72226 | 120.65856 | 9318 ft | 310 kts | 41° |
| 2026-05-06 08:43 | 24.73828 | 120.67436 | 8930 ft | 308 kts | 41° |
| 2026-05-06 08:44 | 24.75417 | 120.69002 | 8553 ft | 306 kts | 41° |
| 2026-05-06 08:44 | 24.77000 | 120.70561 | 8186 ft | 304 kts | 41° |
| 2026-05-06 08:44 | 24.78568 | 120.72105 | 7811 ft | 302 kts | 41° |
| 2026-05-06 08:44 | 24.80130 | 120.73643 | 7471 ft | 300 kts | 41° |
| 2026-05-06 08:45 | 24.81680 | 120.75168 | 7137 ft | 297 kts | 41° |
| 2026-05-06 08:45 | 24.83214 | 120.76678 | 6790 ft | 295 kts | 41° |
| 2026-05-06 08:45 | 24.84738 | 120.78181 | 6443 ft | 294 kts | 41° |
| 2026-05-06 08:45 | 24.86258 | 120.79679 | 6061 ft | 292 kts | 41° |
| 2026-05-06 08:46 | 24.87768 | 120.81168 | 5685 ft | 290 kts | 41° |
| 2026-05-06 08:46 | 24.89250 | 120.82629 | 5292 ft | 289 kts | 41° |
| 2026-05-06 08:46 | 24.90728 | 120.84169 | 4895 ft | 289 kts | 48° |
| 2026-05-06 08:46 | 24.91691 | 120.86075 | 4517 ft | 286 kts | 76° |
| 2026-05-06 08:47 | 24.91834 | 120.88197 | 4219 ft | 279 kts | 94° |
| 2026-05-06 08:47 | 24.91719 | 120.90310 | 4018 ft | 275 kts | 95° |
| 2026-05-06 08:47 | 24.91591 | 120.92379 | 3986 ft | 270 kts | 95° |
| 2026-05-06 08:47 | 24.91477 | 120.94373 | 3994 ft | 252 kts | 95° |
| 2026-05-06 08:48 | 24.91375 | 120.96263 | 3993 ft | 234 kts | 95° |
| 2026-05-06 08:48 | 24.91288 | 120.97951 | 4013 ft | 209 kts | 95° |
| 2026-05-06 08:48 | 24.91207 | 120.99502 | 4032 ft | 199 kts | 95° |
| 2026-05-06 08:48 | 24.91126 | 121.01023 | 4005 ft | 199 kts | 95° |
| 2026-05-06 08:49 | 24.91105 | 121.02528 | 3984 ft | 201 kts | 83° |
| 2026-05-06 08:49 | 24.91649 | 121.03930 | 3995 ft | 200 kts | 55° |
| 2026-05-06 08:49 | 24.92535 | 121.05111 | 4001 ft | 200 kts | 48° |
| 2026-05-06 08:49 | 24.93457 | 121.06260 | 3886 ft | 199 kts | 49° |
| 2026-05-06 08:50 | 24.94339 | 121.07391 | 3633 ft | 190 kts | 50° |
| 2026-05-06 08:50 | 24.95199 | 121.08491 | 3358 ft | 189 kts | 50° |
| 2026-05-06 08:50 | 24.96056 | 121.09582 | 3094 ft | 187 kts | 50° |
| 2026-05-06 08:50 | 24.96904 | 121.10660 | 2847 ft | 185 kts | 50° |
| 2026-05-06 08:51 | 24.97728 | 121.11710 | 2588 ft | 174 kts | 50° |
| 2026-05-06 08:51 | 24.98488 | 121.12676 | 2395 ft | 162 kts | 50° |
| 2026-05-06 08:51 | 24.99203 | 121.13588 | 2183 ft | 152 kts | 50° |
| 2026-05-06 08:51 | 24.99874 | 121.14443 | 1990 ft | 143 kts | 50° |
| 2026-05-06 08:52 | 25.00515 | 121.15261 | 1799 ft | 140 kts | 49° |
| 2026-05-06 08:52 | 25.01144 | 121.16061 | 1631 ft | 138 kts | 48° |
| 2026-05-06 08:52 | 25.01781 | 121.16872 | 1444 ft | 142 kts | 48° |
| 2026-05-06 08:52 | 25.02419 | 121.17685 | 1265 ft | 138 kts | 49° |
| 2026-05-06 08:53 | 25.03042 | 121.18477 | 1078 ft | 137 kts | 50° |
| 2026-05-06 08:53 | 25.03667 | 121.19276 | 899 ft | 139 kts | 47° |
| 2026-05-06 08:53 | 25.04301 | 121.20084 | 698 ft | 138 kts | 45° |
| 2026-05-06 08:53 | 25.04931 | 121.20888 | 504 ft | 140 kts | 46° |
| 2026-05-06 08:54 | 25.05558 | 121.21689 | 306 ft | 134 kts | 47° |
| 2026-05-06 08:54 | 25.06164 | 121.22458 | 168 ft | 133 kts | 48° |
| 2026-05-06 08:54 | 25.06752 | 121.23220 | 104 ft | 124 kts | 49° |
| 2026-05-06 08:54 | 25.07219 | 121.23805 | 101 ft | 55 kts | 48° |
| 2026-05-06 08:55 | 25.07391 | 121.24015 | 100 ft | 40 kts | 48° |
| 2026-05-06 08:55 | 25.07462 | 121.24098 | 100 ft | 4 kts | 39° |
| 2026-05-06 08:55 | 25.07502 | 121.24129 | 103 ft | 10 kts | 35° |
| 2026-05-06 08:55 | 25.07574 | 121.24177 | 102 ft | 14 kts | 25° |
| 2026-05-06 08:56 | 25.07680 | 121.24222 | 106 ft | 18 kts | 19° |
| 2026-05-06 08:56 | 25.07794 | 121.24202 | 106 ft | 18 kts | 317° |
| 2026-05-06 08:56 | 25.07864 | 121.24136 | 107 ft | 0 kts | 320° |